sensor_id;sensor_type;location;lat;lon;timestamp;P1;durP1;ratioP1;P2;durP2;ratioP2
53245;SDS011;39569;51.090;-1.786;2023-04-06T00:00:31;14.15;;;12.95;;
53245;SDS011;39569;51.090;-1.786;2023-04-06T00:02:58;14.13;;;12.15;;
53245;SDS011;39569;51.090;-1.786;2023-04-06T00:05:26;13.23;;;11.90;;
53245;SDS011;39569;51.090;-1.786;2023-04-06T00:07:55;16.42;;;12.23;;
53245;SDS011;39569;51.090;-1.786;2023-04-06T00:10:23;13.50;;;12.40;;
53245;SDS011;39569;51.090;-1.786;2023-04-06T00:12:49;14.43;;;13.10;;
53245;SDS011;39569;51.090;-1.786;2023-04-06T00:15:16;13.50;;;12.23;;
53245;SDS011;39569;51.090;-1.786;2023-04-06T00:17:43;15.13;;;13.82;;
53245;SDS011;39569;51.090;-1.786;2023-04-06T00:20:10;14.02;;;12.85;;
53245;SDS011;39569;51.090;-1.786;2023-04-06T00:22:39;14.52;;;12.88;;
53245;SDS011;39569;51.090;-1.786;2023-04-06T00:25:06;15.95;;;14.65;;
53245;SDS011;39569;51.090;-1.786;2023-04-06T00:27:33;17.25;;;15.38;;
53245;SDS011;39569;51.090;-1.786;2023-04-06T00:30:00;16.75;;;15.38;;
53245;SDS011;39569;51.090;-1.786;2023-04-06T00:32:27;16.50;;;14.90;;
53245;SDS011;39569;51.090;-1.786;2023-04-06T00:34:54;14.82;;;13.55;;
53245;SDS011;39569;51.090;-1.786;2023-04-06T00:37:20;15.73;;;14.57;;
53245;SDS011;39569;51.090;-1.786;2023-04-06T00:39:49;14.00;;;12.90;;
53245;SDS011;39569;51.090;-1.786;2023-04-06T00:42:16;12.98;;;11.70;;
53245;SDS011;39569;51.090;-1.786;2023-04-06T00:44:50;6.35;;;5.25;;
53245;SDS011;39569;51.090;-1.786;2023-04-06T00:47:17;13.68;;;11.90;;
53245;SDS011;39569;51.090;-1.786;2023-04-06T00:49:43;14.27;;;12.88;;
53245;SDS011;39569;51.090;-1.786;2023-04-06T00:52:10;7.10;;;6.43;;
53245;SDS011;39569;51.090;-1.786;2023-04-06T00:54:37;12.07;;;11.18;;
53245;SDS011;39569;51.090;-1.786;2023-04-06T00:57:05;13.20;;;12.15;;
53245;SDS011;39569;51.090;-1.786;2023-04-06T00:59:32;14.10;;;12.70;;
53245;SDS011;39569;51.090;-1.786;2023-04-06T01:01:59;14.27;;;12.93;;
53245;SDS011;39569;51.090;-1.786;2023-04-06T01:04:26;16.92;;;15.32;;
53245;SDS011;39569;51.090;-1.786;2023-04-06T01:06:53;15.30;;;13.85;;
53245;SDS011;39569;51.090;-1.786;2023-04-06T01:09:20;15.13;;;13.85;;
53245;SDS011;39569;51.090;-1.786;2023-04-06T01:11:47;15.77;;;14.55;;
53245;SDS011;39569;51.090;-1.786;2023-04-06T01:14:15;16.48;;;15.23;;
53245;SDS011;39569;51.090;-1.786;2023-04-06T01:16:42;14.93;;;13.73;;
53245;SDS011;39569;51.090;-1.786;2023-04-06T01:19:09;14.45;;;12.98;;
53245;SDS011;39569;51.090;-1.786;2023-04-06T01:21:37;14.15;;;12.95;;
53245;SDS011;39569;51.090;-1.786;2023-04-06T01:24:06;13.30;;;12.18;;
53245;SDS011;39569;51.090;-1.786;2023-04-06T01:26:34;11.75;;;10.85;;
53245;SDS011;39569;51.090;-1.786;2023-04-06T01:29:02;9.80;;;9.10;;
53245;SDS011;39569;51.090;-1.786;2023-04-06T01:31:29;9.68;;;8.88;;
53245;SDS011;39569;51.090;-1.786;2023-04-06T01:33:56;9.43;;;8.70;;
53245;SDS011;39569;51.090;-1.786;2023-04-06T01:36:22;8.57;;;7.88;;
53245;SDS011;39569;51.090;-1.786;2023-04-06T01:38:50;5.78;;;5.38;;
53245;SDS011;39569;51.090;-1.786;2023-04-06T01:41:18;6.75;;;6.32;;
53245;SDS011;39569;51.090;-1.786;2023-04-06T01:43:45;7.15;;;6.65;;
53245;SDS011;39569;51.090;-1.786;2023-04-06T01:46:13;3.13;;;2.92;;
53245;SDS011;39569;51.090;-1.786;2023-04-06T01:48:40;11.45;;;6.03;;
53245;SDS011;39569;51.090;-1.786;2023-04-06T01:51:07;6.78;;;6.05;;
53245;SDS011;39569;51.090;-1.786;2023-04-06T01:53:34;5.80;;;5.40;;
53245;SDS011;39569;51.090;-1.786;2023-04-06T01:56:00;7.10;;;6.60;;
53245;SDS011;39569;51.090;-1.786;2023-04-06T01:58:29;6.40;;;6.00;;
53245;SDS011;39569;51.090;-1.786;2023-04-06T02:00:55;6.68;;;6.13;;
53245;SDS011;39569;51.090;-1.786;2023-04-06T02:03:22;7.13;;;6.68;;
53245;SDS011;39569;51.090;-1.786;2023-04-06T02:05:49;6.75;;;6.32;;
53245;SDS011;39569;51.090;-1.786;2023-04-06T02:08:16;8.52;;;7.78;;
53245;SDS011;39569;51.090;-1.786;2023-04-06T02:10:43;7.70;;;7.07;;
53245;SDS011;39569;51.090;-1.786;2023-04-06T02:13:09;8.20;;;7.50;;
53245;SDS011;39569;51.090;-1.786;2023-04-06T02:15:38;9.32;;;8.48;;
53245;SDS011;39569;51.090;-1.786;2023-04-06T02:18:04;9.32;;;8.63;;
53245;SDS011;39569;51.090;-1.786;2023-04-06T02:20:31;11.48;;;10.52;;
53245;SDS011;39569;51.090;-1.786;2023-04-06T02:22:58;10.25;;;9.32;;
53245;SDS011;39569;51.090;-1.786;2023-04-06T02:25:25;10.45;;;9.55;;
53245;SDS011;39569;51.090;-1.786;2023-04-06T02:27:53;14.85;;;10.50;;
53245;SDS011;39569;51.090;-1.786;2023-04-06T02:30:19;10.25;;;9.40;;
53245;SDS011;39569;51.090;-1.786;2023-04-06T02:32:48;12.38;;;11.45;;
53245;SDS011;39569;51.090;-1.786;2023-04-06T02:35:14;11.32;;;10.52;;
53245;SDS011;39569;51.090;-1.786;2023-04-06T02:37:41;12.00;;;10.77;;
53245;SDS011;39569;51.090;-1.786;2023-04-06T02:40:08;11.75;;;10.85;;
53245;SDS011;39569;51.090;-1.786;2023-04-06T02:42:36;9.45;;;8.68;;
53245;SDS011;39569;51.090;-1.786;2023-04-06T02:45:03;9.90;;;9.02;;
53245;SDS011;39569;51.090;-1.786;2023-04-06T02:47:30;10.25;;;9.30;;
53245;SDS011;39569;51.090;-1.786;2023-04-06T02:49:59;8.95;;;8.27;;
53245;SDS011;39569;51.090;-1.786;2023-04-06T02:52:26;8.57;;;7.95;;
53245;SDS011;39569;51.090;-1.786;2023-04-06T02:54:53;8.65;;;7.93;;
53245;SDS011;39569;51.090;-1.786;2023-04-06T02:57:20;7.88;;;7.28;;
53245;SDS011;39569;51.090;-1.786;2023-04-06T02:59:46;9.05;;;7.43;;
53245;SDS011;39569;51.090;-1.786;2023-04-06T03:02:13;7.78;;;7.13;;
53245;SDS011;39569;51.090;-1.786;2023-04-06T03:04:40;7.35;;;6.75;;
53245;SDS011;39569;51.090;-1.786;2023-04-06T03:07:08;7.75;;;7.07;;
53245;SDS011;39569;51.090;-1.786;2023-04-06T03:09:36;6.88;;;6.28;;
53245;SDS011;39569;51.090;-1.786;2023-04-06T03:12:03;6.78;;;6.28;;
53245;SDS011;39569;51.090;-1.786;2023-04-06T03:14:30;7.53;;;6.63;;
53245;SDS011;39569;51.090;-1.786;2023-04-06T03:16:57;7.25;;;6.60;;
53245;SDS011;39569;51.090;-1.786;2023-04-06T03:19:23;8.07;;;7.43;;
53245;SDS011;39569;51.090;-1.786;2023-04-06T03:21:50;8.65;;;7.88;;
53245;SDS011;39569;51.090;-1.786;2023-04-06T03:24:18;7.72;;;7.13;;
53245;SDS011;39569;51.090;-1.786;2023-04-06T03:26:45;6.75;;;6.25;;
53245;SDS011;39569;51.090;-1.786;2023-04-06T03:29:12;6.30;;;5.80;;
53245;SDS011;39569;51.090;-1.786;2023-04-06T03:31:39;5.90;;;5.50;;
53245;SDS011;39569;51.090;-1.786;2023-04-06T03:34:05;10.20;;;6.15;;
53245;SDS011;39569;51.090;-1.786;2023-04-06T03:36:33;6.20;;;5.70;;
53245;SDS011;39569;51.090;-1.786;2023-04-06T03:39:00;5.57;;;5.18;;
53245;SDS011;39569;51.090;-1.786;2023-04-06T03:41:28;6.63;;;6.10;;
53245;SDS011;39569;51.090;-1.786;2023-04-06T03:43:55;4.45;;;4.15;;
53245;SDS011;39569;51.090;-1.786;2023-04-06T03:46:22;4.55;;;4.18;;
53245;SDS011;39569;51.090;-1.786;2023-04-06T03:48:49;3.67;;;3.38;;
53245;SDS011;39569;51.090;-1.786;2023-04-06T03:51:15;12.18;;;4.10;;
53245;SDS011;39569;51.090;-1.786;2023-04-06T03:53:42;2.63;;;2.42;;
53245;SDS011;39569;51.090;-1.786;2023-04-06T03:56:09;2.28;;;2.17;;
53245;SDS011;39569;51.090;-1.786;2023-04-06T03:58:37;2.78;;;2.60;;
53245;SDS011;39569;51.090;-1.786;2023-04-06T04:01:04;4.28;;;2.70;;
53245;SDS011;39569;51.090;-1.786;2023-04-06T04:03:31;3.40;;;2.67;;
53245;SDS011;39569;51.090;-1.786;2023-04-06T04:05:57;4.47;;;2.95;;
53245;SDS011;39569;51.090;-1.786;2023-04-06T04:08:24;2.70;;;2.45;;
53245;SDS011;39569;51.090;-1.786;2023-04-06T04:10:51;2.38;;;2.22;;
53245;SDS011;39569;51.090;-1.786;2023-04-06T04:13:18;4.25;;;2.63;;
53245;SDS011;39569;51.090;-1.786;2023-04-06T04:15:47;4.30;;;3.53;;
53245;SDS011;39569;51.090;-1.786;2023-04-06T04:18:13;3.00;;;2.80;;
53245;SDS011;39569;51.090;-1.786;2023-04-06T04:20:40;2.92;;;2.72;;
53245;SDS011;39569;51.090;-1.786;2023-04-06T04:23:07;9.50;;;3.22;;
53245;SDS011;39569;51.090;-1.786;2023-04-06T04:25:34;8.32;;;2.85;;
53245;SDS011;39569;51.090;-1.786;2023-04-06T04:28:01;5.20;;;2.90;;
53245;SDS011;39569;51.090;-1.786;2023-04-06T04:30:27;3.17;;;2.88;;
53245;SDS011;39569;51.090;-1.786;2023-04-06T04:32:56;3.08;;;2.80;;
53245;SDS011;39569;51.090;-1.786;2023-04-06T04:35:23;5.20;;;2.78;;
53245;SDS011;39569;51.090;-1.786;2023-04-06T04:37:49;5.80;;;2.05;;
53245;SDS011;39569;51.090;-1.786;2023-04-06T04:40:16;2.67;;;2.42;;
53245;SDS011;39569;51.090;-1.786;2023-04-06T04:42:43;4.57;;;2.05;;
53245;SDS011;39569;51.090;-1.786;2023-04-06T04:45:10;3.20;;;1.20;;
53245;SDS011;39569;51.090;-1.786;2023-04-06T04:47:36;2.75;;;2.03;;
53245;SDS011;39569;51.090;-1.786;2023-04-06T04:50:05;7.10;;;2.63;;
53245;SDS011;39569;51.090;-1.786;2023-04-06T04:52:32;7.35;;;3.08;;
53245;SDS011;39569;51.090;-1.786;2023-04-06T04:54:59;6.55;;;3.42;;
53245;SDS011;39569;51.090;-1.786;2023-04-06T04:57:26;2.83;;;2.25;;
53245;SDS011;39569;51.090;-1.786;2023-04-06T04:59:53;5.28;;;2.67;;
53245;SDS011;39569;51.090;-1.786;2023-04-06T05:02:19;3.35;;;1.75;;
53245;SDS011;39569;51.090;-1.786;2023-04-06T05:04:46;12.75;;;3.58;;
53245;SDS011;39569;51.090;-1.786;2023-04-06T05:07:14;8.45;;;2.88;;
53245;SDS011;39569;51.090;-1.786;2023-04-06T05:09:43;3.42;;;2.30;;
53245;SDS011;39569;51.090;-1.786;2023-04-06T05:12:10;8.75;;;3.45;;
53245;SDS011;39569;51.090;-1.786;2023-04-06T05:14:37;5.93;;;2.88;;
53245;SDS011;39569;51.090;-1.786;2023-04-06T05:17:04;6.60;;;3.05;;
53245;SDS011;39569;51.090;-1.786;2023-04-06T05:19:31;6.35;;;3.15;;
53245;SDS011;39569;51.090;-1.786;2023-04-06T05:21:58;4.38;;;2.17;;
53245;SDS011;39569;51.090;-1.786;2023-04-06T05:24:26;10.98;;;3.45;;
53245;SDS011;39569;51.090;-1.786;2023-04-06T05:26:53;5.10;;;2.58;;
53245;SDS011;39569;51.090;-1.786;2023-04-06T05:29:19;7.13;;;2.75;;
53245;SDS011;39569;51.090;-1.786;2023-04-06T05:31:46;6.80;;;2.72;;
53245;SDS011;39569;51.090;-1.786;2023-04-06T05:34:13;5.32;;;2.15;;
53245;SDS011;39569;51.090;-1.786;2023-04-06T05:36:40;9.18;;;2.80;;
53245;SDS011;39569;51.090;-1.786;2023-04-06T05:39:07;6.60;;;3.15;;
53245;SDS011;39569;51.090;-1.786;2023-04-06T05:41:35;4.72;;;2.60;;
53245;SDS011;39569;51.090;-1.786;2023-04-06T05:44:02;9.18;;;3.13;;
53245;SDS011;39569;51.090;-1.786;2023-04-06T05:46:28;11.02;;;2.65;;
53245;SDS011;39569;51.090;-1.786;2023-04-06T05:48:55;10.27;;;3.70;;
53245;SDS011;39569;51.090;-1.786;2023-04-06T05:51:22;16.20;;;4.22;;
53245;SDS011;39569;51.090;-1.786;2023-04-06T05:53:49;9.27;;;3.50;;
53245;SDS011;39569;51.090;-1.786;2023-04-06T05:56:16;11.77;;;3.60;;
53245;SDS011;39569;51.090;-1.786;2023-04-06T05:58:44;13.80;;;2.03;;
53245;SDS011;39569;51.090;-1.786;2023-04-06T06:01:11;7.13;;;2.60;;
53245;SDS011;39569;51.090;-1.786;2023-04-06T06:03:38;14.25;;;4.78;;
53245;SDS011;39569;51.090;-1.786;2023-04-06T06:06:05;4.32;;;2.55;;
53245;SDS011;39569;51.090;-1.786;2023-04-06T06:08:32;12.23;;;3.80;;
53245;SDS011;39569;51.090;-1.786;2023-04-06T06:10:59;8.75;;;3.40;;
53245;SDS011;39569;51.090;-1.786;2023-04-06T06:13:25;14.32;;;4.68;;
53245;SDS011;39569;51.090;-1.786;2023-04-06T06:15:54;1.75;;;0.93;;
53245;SDS011;39569;51.090;-1.786;2023-04-06T06:18:20;13.30;;;3.70;;
53245;SDS011;39569;51.090;-1.786;2023-04-06T06:20:47;10.85;;;3.88;;
53245;SDS011;39569;51.090;-1.786;2023-04-06T06:23:14;15.32;;;3.42;;
53245;SDS011;39569;51.090;-1.786;2023-04-06T06:25:41;17.75;;;5.03;;
53245;SDS011;39569;51.090;-1.786;2023-04-06T06:28:07;14.05;;;5.32;;
53245;SDS011;39569;51.090;-1.786;2023-04-06T06:30:34;10.60;;;4.93;;
53245;SDS011;39569;51.090;-1.786;2023-04-06T06:33:02;16.98;;;5.25;;
53245;SDS011;39569;51.090;-1.786;2023-04-06T06:35:29;11.57;;;3.58;;
53245;SDS011;39569;51.090;-1.786;2023-04-06T06:37:56;19.17;;;5.70;;
53245;SDS011;39569;51.090;-1.786;2023-04-06T06:40:23;24.70;;;5.28;;
53245;SDS011;39569;51.090;-1.786;2023-04-06T06:42:51;15.48;;;5.80;;
53245;SDS011;39569;51.090;-1.786;2023-04-06T06:45:17;23.35;;;7.28;;
53245;SDS011;39569;51.090;-1.786;2023-04-06T06:47:45;18.52;;;6.55;;
53245;SDS011;39569;51.090;-1.786;2023-04-06T06:50:13;7.03;;;6.32;;
53245;SDS011;39569;51.090;-1.786;2023-04-06T06:52:40;22.10;;;7.60;;
53245;SDS011;39569;51.090;-1.786;2023-04-06T06:55:08;26.33;;;5.57;;
53245;SDS011;39569;51.090;-1.786;2023-04-06T06:57:35;21.17;;;6.95;;
53245;SDS011;39569;51.090;-1.786;2023-04-06T07:00:03;23.33;;;7.07;;
53245;SDS011;39569;51.090;-1.786;2023-04-06T07:02:33;5.60;;;1.92;;
53245;SDS011;39569;51.090;-1.786;2023-04-06T07:05:01;9.75;;;5.97;;
53245;SDS011;39569;51.090;-1.786;2023-04-06T07:07:29;26.85;;;7.80;;
53245;SDS011;39569;51.090;-1.786;2023-04-06T07:09:57;13.40;;;6.82;;
53245;SDS011;39569;51.090;-1.786;2023-04-06T07:12:24;23.88;;;6.32;;
53245;SDS011;39569;51.090;-1.786;2023-04-06T07:14:51;16.70;;;6.30;;
53245;SDS011;39569;51.090;-1.786;2023-04-06T07:17:18;19.38;;;6.80;;
53245;SDS011;39569;51.090;-1.786;2023-04-06T07:19:45;6.22;;;4.15;;
53245;SDS011;39569;51.090;-1.786;2023-04-06T07:22:12;20.27;;;8.07;;
53245;SDS011;39569;51.090;-1.786;2023-04-06T07:24:40;23.27;;;7.60;;
53245;SDS011;39569;51.090;-1.786;2023-04-06T07:27:07;8.70;;;5.40;;
53245;SDS011;39569;51.090;-1.786;2023-04-06T07:29:33;13.60;;;5.97;;
53245;SDS011;39569;51.090;-1.786;2023-04-06T07:32:00;11.70;;;7.25;;
53245;SDS011;39569;51.090;-1.786;2023-04-06T07:34:27;20.60;;;6.90;;
53245;SDS011;39569;51.090;-1.786;2023-04-06T07:36:54;15.90;;;6.78;;
53245;SDS011;39569;51.090;-1.786;2023-04-06T07:39:21;17.55;;;7.25;;
53245;SDS011;39569;51.090;-1.786;2023-04-06T07:41:49;22.35;;;6.82;;
53245;SDS011;39569;51.090;-1.786;2023-04-06T07:44:16;15.80;;;7.07;;
53245;SDS011;39569;51.090;-1.786;2023-04-06T07:46:43;13.70;;;7.30;;
53245;SDS011;39569;51.090;-1.786;2023-04-06T07:49:10;21.67;;;6.60;;
53245;SDS011;39569;51.090;-1.786;2023-04-06T07:51:37;16.60;;;6.78;;
53245;SDS011;39569;51.090;-1.786;2023-04-06T07:54:04;18.75;;;8.13;;
53245;SDS011;39569;51.090;-1.786;2023-04-06T07:56:32;13.73;;;7.25;;
53245;SDS011;39569;51.090;-1.786;2023-04-06T07:59:00;24.58;;;9.88;;
53245;SDS011;39569;51.090;-1.786;2023-04-06T08:01:28;24.27;;;8.85;;
53245;SDS011;39569;51.090;-1.786;2023-04-06T08:03:55;13.43;;;7.40;;
53245;SDS011;39569;51.090;-1.786;2023-04-06T08:06:22;18.75;;;9.18;;
53245;SDS011;39569;51.090;-1.786;2023-04-06T08:08:49;19.48;;;9.18;;
53245;SDS011;39569;51.090;-1.786;2023-04-06T08:11:16;21.98;;;9.70;;
53245;SDS011;39569;51.090;-1.786;2023-04-06T08:13:43;20.80;;;7.90;;
53245;SDS011;39569;51.090;-1.786;2023-04-06T08:16:11;19.63;;;8.65;;
53245;SDS011;39569;51.090;-1.786;2023-04-06T08:18:38;17.77;;;8.50;;
53245;SDS011;39569;51.090;-1.786;2023-04-06T08:21:05;20.23;;;9.30;;
53245;SDS011;39569;51.090;-1.786;2023-04-06T08:23:31;25.70;;;8.48;;
53245;SDS011;39569;51.090;-1.786;2023-04-06T08:25:58;16.08;;;8.55;;
53245;SDS011;39569;51.090;-1.786;2023-04-06T08:28:25;20.95;;;6.97;;
53245;SDS011;39569;51.090;-1.786;2023-04-06T08:30:52;21.95;;;7.22;;
53245;SDS011;39569;51.090;-1.786;2023-04-06T08:33:20;19.40;;;6.47;;
53245;SDS011;39569;51.090;-1.786;2023-04-06T08:35:47;14.25;;;6.30;;
53245;SDS011;39569;51.090;-1.786;2023-04-06T08:38:14;16.80;;;5.38;;
53245;SDS011;39569;51.090;-1.786;2023-04-06T08:40:41;14.45;;;6.90;;
53245;SDS011;39569;51.090;-1.786;2023-04-06T08:43:11;25.63;;;6.72;;
53245;SDS011;39569;51.090;-1.786;2023-04-06T08:45:40;17.13;;;7.05;;
53245;SDS011;39569;51.090;-1.786;2023-04-06T08:48:07;19.80;;;5.97;;
53245;SDS011;39569;51.090;-1.786;2023-04-06T08:50:36;22.13;;;6.63;;
53245;SDS011;39569;51.090;-1.786;2023-04-06T08:53:04;11.23;;;6.18;;
53245;SDS011;39569;51.090;-1.786;2023-04-06T08:55:33;19.73;;;5.55;;
53245;SDS011;39569;51.090;-1.786;2023-04-06T08:58:00;17.52;;;6.45;;
53245;SDS011;39569;51.090;-1.786;2023-04-06T09:00:27;13.40;;;4.88;;
53245;SDS011;39569;51.090;-1.786;2023-04-06T09:02:55;21.10;;;5.60;;
53245;SDS011;39569;51.090;-1.786;2023-04-06T09:05:24;16.50;;;6.43;;
53245;SDS011;39569;51.090;-1.786;2023-04-06T09:07:54;18.83;;;5.97;;
53245;SDS011;39569;51.090;-1.786;2023-04-06T09:10:21;14.40;;;6.30;;
53245;SDS011;39569;51.090;-1.786;2023-04-06T09:12:50;11.30;;;5.15;;
53245;SDS011;39569;51.090;-1.786;2023-04-06T09:15:17;11.55;;;5.00;;
53245;SDS011;39569;51.090;-1.786;2023-04-06T09:17:45;34.65;;;5.72;;
53245;SDS011;39569;51.090;-1.786;2023-04-06T09:20:12;11.48;;;4.40;;
53245;SDS011;39569;51.090;-1.786;2023-04-06T09:22:39;14.02;;;5.75;;
53245;SDS011;39569;51.090;-1.786;2023-04-06T09:25:08;14.13;;;4.85;;
53245;SDS011;39569;51.090;-1.786;2023-04-06T09:27:36;13.10;;;5.70;;
53245;SDS011;39569;51.090;-1.786;2023-04-06T09:30:05;14.63;;;6.70;;
53245;SDS011;39569;51.090;-1.786;2023-04-06T09:32:43;15.82;;;5.82;;
53245;SDS011;39569;51.090;-1.786;2023-04-06T09:35:11;15.40;;;5.10;;
53245;SDS011;39569;51.090;-1.786;2023-04-06T09:37:38;11.85;;;4.30;;
53245;SDS011;39569;51.090;-1.786;2023-04-06T09:40:06;10.48;;;4.13;;
53245;SDS011;39569;51.090;-1.786;2023-04-06T09:42:35;10.10;;;5.28;;
53245;SDS011;39569;51.090;-1.786;2023-04-06T09:45:02;6.85;;;4.50;;
53245;SDS011;39569;51.090;-1.786;2023-04-06T09:47:29;15.82;;;5.22;;
53245;SDS011;39569;51.090;-1.786;2023-04-06T09:49:58;15.60;;;6.55;;
53245;SDS011;39569;51.090;-1.786;2023-04-06T09:52:26;12.63;;;7.00;;
53245;SDS011;39569;51.090;-1.786;2023-04-06T09:54:58;11.23;;;6.20;;
53245;SDS011;39569;51.090;-1.786;2023-04-06T09:57:32;19.45;;;7.22;;
53245;SDS011;39569;51.090;-1.786;2023-04-06T10:00:04;21.23;;;7.18;;
53245;SDS011;39569;51.090;-1.786;2023-04-06T10:02:36;8.32;;;5.57;;
53245;SDS011;39569;51.090;-1.786;2023-04-06T10:05:13;16.85;;;8.32;;
53245;SDS011;39569;51.090;-1.786;2023-04-06T10:07:46;15.52;;;7.47;;
53245;SDS011;39569;51.090;-1.786;2023-04-06T10:10:17;19.08;;;8.00;;
53245;SDS011;39569;51.090;-1.786;2023-04-06T10:12:45;16.90;;;6.88;;
53245;SDS011;39569;51.090;-1.786;2023-04-06T10:15:15;15.90;;;5.35;;
53245;SDS011;39569;51.090;-1.786;2023-04-06T10:17:42;17.08;;;7.00;;
53245;SDS011;39569;51.090;-1.786;2023-04-06T10:20:10;20.85;;;6.30;;
53245;SDS011;39569;51.090;-1.786;2023-04-06T10:22:43;17.45;;;6.80;;
53245;SDS011;39569;51.090;-1.786;2023-04-06T10:25:25;20.40;;;7.82;;
53245;SDS011;39569;51.090;-1.786;2023-04-06T10:28:00;19.10;;;7.18;;
53245;SDS011;39569;51.090;-1.786;2023-04-06T10:30:27;12.07;;;5.45;;
53245;SDS011;39569;51.090;-1.786;2023-04-06T10:32:55;19.30;;;7.53;;
53245;SDS011;39569;51.090;-1.786;2023-04-06T10:35:22;12.50;;;4.78;;
53245;SDS011;39569;51.090;-1.786;2023-04-06T10:37:52;14.30;;;6.25;;
53245;SDS011;39569;51.090;-1.786;2023-04-06T10:40:21;10.95;;;4.85;;
53245;SDS011;39569;51.090;-1.786;2023-04-06T10:42:50;6.68;;;4.40;;
53245;SDS011;39569;51.090;-1.786;2023-04-06T10:45:25;8.93;;;5.53;;
53245;SDS011;39569;51.090;-1.786;2023-04-06T10:47:52;14.45;;;5.53;;
53245;SDS011;39569;51.090;-1.786;2023-04-06T10:50:19;12.07;;;6.05;;
53245;SDS011;39569;51.090;-1.786;2023-04-06T10:52:47;12.50;;;6.53;;
53245;SDS011;39569;51.090;-1.786;2023-04-06T10:55:25;15.68;;;6.70;;
53245;SDS011;39569;51.090;-1.786;2023-04-06T10:57:52;13.25;;;5.57;;
53245;SDS011;39569;51.090;-1.786;2023-04-06T11:00:20;10.73;;;4.35;;
53245;SDS011;39569;51.090;-1.786;2023-04-06T11:02:48;17.02;;;6.05;;
53245;SDS011;39569;51.090;-1.786;2023-04-06T11:05:15;13.10;;;4.80;;
53245;SDS011;39569;51.090;-1.786;2023-04-06T11:07:43;13.77;;;5.82;;
53245;SDS011;39569;51.090;-1.786;2023-04-06T11:10:10;14.20;;;5.22;;
53245;SDS011;39569;51.090;-1.786;2023-04-06T11:12:37;21.00;;;7.60;;
53245;SDS011;39569;51.090;-1.786;2023-04-06T11:15:04;33.55;;;13.18;;
53245;SDS011;39569;51.090;-1.786;2023-04-06T11:17:32;15.45;;;6.38;;
53245;SDS011;39569;51.090;-1.786;2023-04-06T11:20:02;11.55;;;4.80;;
53245;SDS011;39569;51.090;-1.786;2023-04-06T11:22:31;17.02;;;6.03;;
53245;SDS011;39569;51.090;-1.786;2023-04-06T11:25:04;10.60;;;4.80;;
53245;SDS011;39569;51.090;-1.786;2023-04-06T11:27:32;9.65;;;5.20;;
53245;SDS011;39569;51.090;-1.786;2023-04-06T11:30:00;11.18;;;4.78;;
53245;SDS011;39569;51.090;-1.786;2023-04-06T11:32:27;13.65;;;4.88;;
53245;SDS011;39569;51.090;-1.786;2023-04-06T11:34:54;9.48;;;3.92;;
53245;SDS011;39569;51.090;-1.786;2023-04-06T11:37:25;7.32;;;3.95;;
53245;SDS011;39569;51.090;-1.786;2023-04-06T11:39:54;10.32;;;3.85;;
53245;SDS011;39569;51.090;-1.786;2023-04-06T11:42:22;11.30;;;3.90;;
53245;SDS011;39569;51.090;-1.786;2023-04-06T11:44:50;8.32;;;3.50;;
53245;SDS011;39569;51.090;-1.786;2023-04-06T11:47:18;9.68;;;4.07;;
53245;SDS011;39569;51.090;-1.786;2023-04-06T11:49:45;6.85;;;3.58;;
53245;SDS011;39569;51.090;-1.786;2023-04-06T11:52:16;12.55;;;4.20;;
53245;SDS011;39569;51.090;-1.786;2023-04-06T11:54:46;6.55;;;4.00;;
53245;SDS011;39569;51.090;-1.786;2023-04-06T11:57:14;8.95;;;4.05;;
53245;SDS011;39569;51.090;-1.786;2023-04-06T11:59:41;10.63;;;2.30;;
53245;SDS011;39569;51.090;-1.786;2023-04-06T12:02:08;6.40;;;3.50;;
53245;SDS011;39569;51.090;-1.786;2023-04-06T12:04:36;2.08;;;1.85;;
53245;SDS011;39569;51.090;-1.786;2023-04-06T12:07:03;6.35;;;3.10;;
53245;SDS011;39569;51.090;-1.786;2023-04-06T12:09:30;11.65;;;2.70;;
53245;SDS011;39569;51.090;-1.786;2023-04-06T12:12:01;4.85;;;2.63;;
53245;SDS011;39569;51.090;-1.786;2023-04-06T12:14:27;10.20;;;2.35;;
53245;SDS011;39569;51.090;-1.786;2023-04-06T12:16:55;4.07;;;2.50;;
53245;SDS011;39569;51.090;-1.786;2023-04-06T12:19:22;5.63;;;2.20;;
53245;SDS011;39569;51.090;-1.786;2023-04-06T12:21:51;5.45;;;1.88;;
53245;SDS011;39569;51.090;-1.786;2023-04-06T12:24:18;10.38;;;2.38;;
53245;SDS011;39569;51.090;-1.786;2023-04-06T12:26:45;10.00;;;3.88;;
53245;SDS011;39569;51.090;-1.786;2023-04-06T12:29:14;8.07;;;2.83;;
53245;SDS011;39569;51.090;-1.786;2023-04-06T12:31:40;5.65;;;2.15;;
53245;SDS011;39569;51.090;-1.786;2023-04-06T12:34:09;4.65;;;1.20;;
53245;SDS011;39569;51.090;-1.786;2023-04-06T12:36:36;10.13;;;1.90;;
53245;SDS011;39569;51.090;-1.786;2023-04-06T12:39:03;3.33;;;1.45;;
53245;SDS011;39569;51.090;-1.786;2023-04-06T12:41:30;3.65;;;1.75;;
53245;SDS011;39569;51.090;-1.786;2023-04-06T12:43:57;1.92;;;1.73;;
53245;SDS011;39569;51.090;-1.786;2023-04-06T12:46:26;6.90;;;2.30;;
53245;SDS011;39569;51.090;-1.786;2023-04-06T12:48:54;5.15;;;2.47;;
53245;SDS011;39569;51.090;-1.786;2023-04-06T12:51:22;4.07;;;2.55;;
53245;SDS011;39569;51.090;-1.786;2023-04-06T12:53:50;5.07;;;2.92;;
53245;SDS011;39569;51.090;-1.786;2023-04-06T12:56:18;16.08;;;2.63;;
53245;SDS011;39569;51.090;-1.786;2023-04-06T12:58:46;7.40;;;2.05;;
53245;SDS011;39569;51.090;-1.786;2023-04-06T13:01:13;5.05;;;1.60;;
53245;SDS011;39569;51.090;-1.786;2023-04-06T13:03:42;5.65;;;1.58;;
53245;SDS011;39569;51.090;-1.786;2023-04-06T13:06:09;2.53;;;1.88;;
53245;SDS011;39569;51.090;-1.786;2023-04-06T13:08:38;4.55;;;1.58;;
53245;SDS011;39569;51.090;-1.786;2023-04-06T13:11:05;2.42;;;2.00;;
53245;SDS011;39569;51.090;-1.786;2023-04-06T13:13:33;4.93;;;2.38;;
53245;SDS011;39569;51.090;-1.786;2023-04-06T13:16:00;9.50;;;2.58;;
53245;SDS011;39569;51.090;-1.786;2023-04-06T13:18:30;3.67;;;2.75;;
53245;SDS011;39569;51.090;-1.786;2023-04-06T13:20:59;5.28;;;3.13;;
53245;SDS011;39569;51.090;-1.786;2023-04-06T13:23:26;10.45;;;4.03;;
53245;SDS011;39569;51.090;-1.786;2023-04-06T13:25:59;7.03;;;3.20;;
53245;SDS011;39569;51.090;-1.786;2023-04-06T13:28:27;2.22;;;2.05;;
53245;SDS011;39569;51.090;-1.786;2023-04-06T13:30:54;3.60;;;2.25;;
53245;SDS011;39569;51.090;-1.786;2023-04-06T13:33:21;5.07;;;1.90;;
53245;SDS011;39569;51.090;-1.786;2023-04-06T13:35:48;6.15;;;2.70;;
53245;SDS011;39569;51.090;-1.786;2023-04-06T13:38:16;9.60;;;2.92;;
53245;SDS011;39569;51.090;-1.786;2023-04-06T13:40:43;7.22;;;2.25;;
53245;SDS011;39569;51.090;-1.786;2023-04-06T13:43:10;6.82;;;2.65;;
53245;SDS011;39569;51.090;-1.786;2023-04-06T13:45:37;11.57;;;2.85;;
53245;SDS011;39569;51.090;-1.786;2023-04-06T13:48:04;6.10;;;2.83;;
53245;SDS011;39569;51.090;-1.786;2023-04-06T13:50:32;7.65;;;2.25;;
53245;SDS011;39569;51.090;-1.786;2023-04-06T13:52:59;4.25;;;2.03;;
53245;SDS011;39569;51.090;-1.786;2023-04-06T13:55:27;6.60;;;2.38;;
53245;SDS011;39569;51.090;-1.786;2023-04-06T13:57:55;5.78;;;2.58;;
53245;SDS011;39569;51.090;-1.786;2023-04-06T14:00:22;5.13;;;1.95;;
53245;SDS011;39569;51.090;-1.786;2023-04-06T14:02:49;4.43;;;2.45;;
53245;SDS011;39569;51.090;-1.786;2023-04-06T14:05:15;5.50;;;2.35;;
53245;SDS011;39569;51.090;-1.786;2023-04-06T14:07:42;4.60;;;2.45;;
53245;SDS011;39569;51.090;-1.786;2023-04-06T14:10:09;2.97;;;1.85;;
53245;SDS011;39569;51.090;-1.786;2023-04-06T14:12:40;4.85;;;2.05;;
53245;SDS011;39569;51.090;-1.786;2023-04-06T14:15:08;3.50;;;1.98;;
53245;SDS011;39569;51.090;-1.786;2023-04-06T14:17:36;2.28;;;1.98;;
53245;SDS011;39569;51.090;-1.786;2023-04-06T14:20:03;2.17;;;1.60;;
53245;SDS011;39569;51.090;-1.786;2023-04-06T14:22:31;4.20;;;2.67;;
53245;SDS011;39569;51.090;-1.786;2023-04-06T14:24:57;7.80;;;2.22;;
53245;SDS011;39569;51.090;-1.786;2023-04-06T14:27:24;16.05;;;1.48;;